Time;durP1;ratioP1;P1;durP2;ratioP2;P2;SDS_P1;SDS_P2;PMS_P1;PMS_P2;Temp;Humidity;BMP_temperature;BMP_pressure;BME280_temperature;BME280_humidity;BME280_pressure;Samples;Min_cycle;Max_cycle;Signal;HPM_P1;HPM_P2
2023/01/16 01:31:51;;;;;;;9.37;1.73;;;5.90;99.90;;;;;;4074452;29;20199;-89
2023/01/16 01:33:54;;;;;;;5.67;1.07;;;6.00;99.90;;;;;;4060000;29;20153;-90
2023/01/16 01:35:55;;;;;;;9.40;1.53;;;6.20;99.90;;;;;;4059020;29;20161;-89
2023/01/16 01:37:59;;;;;;;6.87;1.40;;;6.20;99.90;;;;;;4058670;29;20216;-89
2023/01/16 01:39:59;;;;;;;3.83;1.20;;;6.30;99.90;;;;;;4077902;29;20278;-89
2023/01/16 01:44:55;;;;;;;12.17;1.80;;;6.10;99.90;;;;;;4080426;29;20192;-89
2023/01/16 01:46:56;;;;;;;7.63;1.70;;;5.90;99.90;;;;;;4076630;29;20285;-89
2023/01/16 01:49:21;;;;;;;9.57;1.77;;;5.90;99.90;;;;;;4079660;29;20212;-90
2023/01/16 01:51:29;;;;;;;12.60;2.00;;;5.90;99.90;;;;;;4062795;29;20210;-89
2023/01/16 01:53:44;;;;;;;11.97;1.50;;;6.00;99.90;;;;;;4063396;29;20678;-89
2023/01/16 01:55:47;;;;;;;8.77;1.80;;;6.10;99.90;;;;;;4079200;29;20226;-89
2023/01/16 01:57:56;;;;;;;11.50;1.50;;;6.20;99.90;;;;;;4063064;29;20207;-90
2023/01/16 02:00:20;;;;;;;16.70;1.90;;;6.30;99.90;;;;;;4078493;29;20164;-89
2023/01/16 02:02:33;;;;;;;12.70;1.90;;;6.30;99.90;;;;;;4076341;29;20183;-89
2023/01/16 02:04:39;;;;;;;11.47;1.83;;;6.30;99.90;;;;;;4076730;29;20164;-89
2023/01/16 02:06:59;;;;;;;11.67;2.00;;;6.30;99.90;;;;;;4061219;29;20201;-89
2023/01/16 02:09:00;;;;;;;9.80;1.77;;;6.40;99.90;;;;;;4079647;29;20250;-89
2023/01/16 02:11:38;;;;;;;11.63;1.40;;;6.40;99.90;;;;;;4064221;29;20515;-91
2023/01/16 02:13:39;;;;;;;10.47;1.70;;;6.50;99.90;;;;;;4060586;29;20157;-91
2023/01/16 02:20:29;;;;;;;14.77;1.53;;;6.70;99.90;;;;;;4081541;29;20175;-89
2023/01/16 02:23:19;;;;;;;11.97;1.30;;;6.50;99.90;;;;;;4079202;29;20197;-89
2023/01/16 02:25:28;;;;;;;10.60;1.70;;;6.30;99.90;;;;;;4077714;29;20330;-90
2023/01/16 02:28:00;;;;;;;9.97;1.63;;;6.40;99.90;;;;;;4062799;29;20713;-89
2023/01/16 02:30:19;;;;;;;8.37;1.30;;;6.40;99.90;;;;;;4078822;29;20176;-92
2023/01/16 02:32:55;;;;;;;8.23;1.30;;;6.60;99.90;;;;;;4061707;29;20248;-90
2023/01/16 02:35:15;;;;;;;11.60;1.43;;;6.60;99.90;;;;;;4062546;29;20192;-89
2023/01/16 02:37:26;;;;;;;10.27;1.40;;;6.70;99.90;;;;;;4065685;29;20196;-90
2023/01/16 02:39:41;;;;;;;12.67;1.57;;;6.70;99.90;;;;;;4065596;29;20189;-89
2023/01/16 02:41:57;;;;;;;10.00;2.03;;;6.70;99.90;;;;;;4063420;29;20181;-89
2023/01/16 02:44:28;;;;;;;11.30;1.63;;;6.70;99.90;;;;;;4061692;29;20229;-90
2023/01/16 02:46:42;;;;;;;13.00;1.70;;;6.80;99.90;;;;;;4066946;29;20169;-89
2023/01/16 02:48:51;;;;;;;6.47;0.80;;;6.90;99.90;;;;;;4061860;29;20200;-90
2023/01/16 02:51:07;;;;;;;12.33;1.37;;;6.90;99.90;;;;;;4063361;29;20181;-89
2023/01/16 02:53:48;;;;;;;7.73;1.20;;;6.90;99.90;;;;;;4078994;29;20160;-91
2023/01/16 02:55:54;;;;;;;9.70;1.20;;;6.90;99.90;;;;;;4065745;29;20251;-90
2023/01/16 02:57:59;;;;;;;6.10;0.90;;;7.10;99.90;;;;;;4081361;29;20185;-89
2023/01/16 03:00:00;;;;;;;10.00;1.13;;;7.10;99.90;;;;;;4078296;29;20184;-90
2023/01/16 03:02:21;;;;;;;7.90;1.37;;;7.10;99.90;;;;;;4064288;29;20180;-90
2023/01/16 03:04:51;;;;;;;4.77;1.13;;;7.10;99.90;;;;;;4065225;29;20184;-92
2023/01/16 03:07:18;;;;;;;5.77;1.30;;;7.20;99.90;;;;;;4081812;29;20291;-90
2023/01/16 03:09:51;;;;;;;6.37;1.47;;;7.30;99.90;;;;;;4082104;29;20757;-90
2023/01/16 03:12:21;;;;;;;8.23;0.80;;;7.40;99.90;;;;;;4064336;29;20165;-91
2023/01/16 03:14:54;;;;;;;7.20;1.00;;;7.20;99.90;;;;;;4080507;29;20199;-90
2023/01/16 03:17:21;;;;;;;8.43;1.03;;;7.10;99.90;;;;;;4063393;29;20299;-90
2023/01/16 03:19:37;;;;;;;8.60;1.47;;;7.30;99.90;;;;;;4067806;29;20189;-90
2023/01/16 03:22:02;;;;;;;9.40;1.10;;;7.30;99.90;;;;;;4063549;29;20192;-91
2023/01/16 03:24:32;;;;;;;12.77;1.40;;;7.30;99.90;;;;;;4062095;29;20177;-90
2023/01/16 03:26:35;;;;;;;5.13;1.20;;;7.30;99.90;;;;;;4067263;29;20162;-91
2023/01/16 03:29:11;;;;;;;8.10;1.00;;;7.30;99.90;;;;;;4082190;29;20279;-92
2023/01/16 03:31:47;;;;;;;5.60;0.70;;;7.40;99.90;;;;;;4079363;29;20199;-90
2023/01/16 03:34:29;;;;;;;13.13;2.00;;;7.40;99.90;;;;;;4065592;29;20172;-89
2023/01/16 03:36:38;;;;;;;6.00;1.07;;;7.20;99.90;;;;;;4080314;29;20192;-90
2023/01/16 03:38:57;;;;;;;6.13;1.07;;;7.30;99.90;;;;;;4082261;29;20168;-90
2023/01/16 03:41:02;;;;;;;11.43;1.00;;;7.20;99.90;;;;;;4065144;29;20185;-89
2023/01/16 03:43:20;;;;;;;12.23;1.13;;;7.20;99.90;;;;;;4078820;29;20192;-89
2023/01/16 03:45:49;;;;;;;6.50;0.90;;;7.20;99.90;;;;;;4079454;29;20173;-89
2023/01/16 03:48:01;;;;;;;5.40;1.00;;;7.30;99.90;;;;;;4062666;29;20247;-89
2023/01/16 03:50:07;;;;;;;5.40;0.87;;;7.30;99.90;;;;;;4060878;29;20181;-90
2023/01/16 03:52:29;;;;;;;6.27;0.80;;;7.30;99.90;;;;;;4064757;29;20194;-91
2023/01/16 03:54:52;;;;;;;5.97;1.00;;;7.30;99.90;;;;;;4064576;29;20185;-90
2023/01/16 03:57:18;;;;;;;12.50;1.33;;;7.10;99.90;;;;;;4064306;29;20249;-89
2023/01/16 03:59:19;;;;;;;6.67;1.03;;;7.10;99.90;;;;;;4061272;29;20304;-90
2023/01/16 04:01:44;;;;;;;10.50;1.10;;;7.20;99.90;;;;;;4062232;29;20188;-90
2023/01/16 04:04:06;;;;;;;9.53;1.17;;;7.20;99.90;;;;;;4062940;29;20209;-90
2023/01/16 04:06:25;;;;;;;7.93;1.00;;;7.20;99.90;;;;;;4063706;29;20276;-91
2023/01/16 04:08:31;;;;;;;7.17;1.00;;;7.10;99.90;;;;;;4078978;29;20266;-90
2023/01/16 04:10:50;;;;;;;11.10;1.10;;;7.10;99.90;;;;;;4061300;29;20181;-90
2023/01/16 04:12:58;;;;;;;5.60;0.80;;;7.10;99.90;;;;;;4060557;29;20185;-90
2023/01/16 04:15:21;;;;;;;6.60;1.27;;;7.00;99.90;;;;;;4061683;29;20184;-90
2023/01/16 04:17:22;;;;;;;10.80;0.90;;;6.90;99.90;;;;;;4081660;29;20204;-90
2023/01/16 04:19:24;;;;;;;9.93;1.03;;;6.80;99.90;;;;;;4066394;29;20181;-90
2023/01/16 04:21:27;;;;;;;6.43;0.90;;;6.80;99.90;;;;;;4062665;29;20213;-91
2023/01/16 04:23:28;;;;;;;7.00;1.20;;;6.80;99.90;;;;;;4064165;29;20161;-90
2023/01/16 04:25:28;;;;;;;4.33;0.70;;;6.80;99.90;;;;;;4066668;29;20662;-91
2023/01/16 04:27:31;;;;;;;4.43;0.60;;;6.60;99.90;;;;;;4067705;29;21058;-92
2023/01/16 04:29:31;;;;;;;10.17;0.97;;;6.50;99.90;;;;;;4062454;29;20181;-91
2023/01/16 04:31:32;;;;;;;8.90;0.83;;;6.50;99.90;;;;;;4063246;29;20192;-90
2023/01/16 04:33:33;;;;;;;6.17;0.87;;;6.50;99.90;;;;;;4064497;29;20183;-90
2023/01/16 04:35:34;;;;;;;7.47;1.10;;;6.60;99.90;;;;;;4062992;29;20193;-91
2023/01/16 04:37:35;;;;;;;8.50;0.80;;;6.60;99.90;;;;;;4063169;29;20216;-91
2023/01/16 04:39:35;;;;;;;7.70;1.10;;;6.60;99.90;;;;;;4064113;29;20580;-90
2023/01/16 04:41:40;;;;;;;9.27;1.20;;;6.80;99.90;;;;;;4063255;29;20217;-93
2023/01/16 04:43:40;;;;;;;5.20;0.80;;;6.70;99.90;;;;;;4060350;29;20191;-91
2023/01/16 04:45:41;;;;;;;9.23;0.90;;;6.70;99.90;;;;;;4077123;29;20184;-91
2023/01/16 04:47:48;;;;;;;7.43;0.80;;;6.60;99.90;;;;;;4060904;29;20216;-90
2023/01/16 04:49:49;;;;;;;5.67;0.70;;;6.60;99.90;;;;;;4062237;29;20709;-91
2023/01/16 04:51:50;;;;;;;9.10;0.90;;;6.50;99.90;;;;;;4061825;29;20172;-91
2023/01/16 04:53:51;;;;;;;6.67;0.80;;;6.40;99.90;;;;;;4061314;29;20275;-90
2023/01/16 04:55:52;;;;;;;7.23;0.90;;;6.50;99.90;;;;;;4063771;29;20216;-92
2023/01/16 04:57:53;;;;;;;5.40;0.80;;;6.60;99.90;;;;;;4067361;23;20225;-91
2023/01/16 04:59:53;;;;;;;6.10;0.70;;;6.60;99.90;;;;;;4047382;29;20161;-91
2023/01/16 05:01:54;;;;;;;10.83;1.47;;;6.50;99.90;;;;;;4064330;29;20284;-90
2023/01/16 05:03:55;;;;;;;7.00;1.10;;;6.30;99.90;;;;;;4047583;29;20189;-90
2023/01/16 05:05:55;;;;;;;9.93;1.20;;;6.20;99.90;;;;;;4063451;29;20201;-91
2023/01/16 05:10:15;;;;;;;4.90;0.83;;;6.20;99.90;;;;;;4064247;29;20216;-95
2023/01/16 05:12:16;;;;;;;3.67;0.63;;;6.30;99.90;;;;;;4046057;29;20185;-90
2023/01/16 05:14:17;;;;;;;4.90;0.90;;;6.20;99.90;;;;;;4077790;29;20183;-91
2023/01/16 05:16:17;;;;;;;6.80;0.70;;;6.10;99.90;;;;;;4061961;29;20173;-91
2023/01/16 05:18:18;;;;;;;3.80;0.67;;;6.10;99.90;;;;;;4048231;29;20177;-92
2023/01/16 05:20:19;;;;;;;6.73;0.70;;;6.20;99.90;;;;;;4047250;29;20734;-91
2023/01/16 05:22:20;;;;;;;5.40;0.97;;;6.20;99.90;;;;;;4060601;29;20180;-89
2023/01/16 05:24:21;;;;;;;9.43;0.77;;;6.10;99.90;;;;;;4048350;29;20189;-89
2023/01/16 05:26:21;;;;;;;6.73;0.53;;;6.00;99.90;;;;;;4061831;29;20241;-90
2023/01/16 05:28:22;;;;;;;5.20;0.40;;;6.10;99.90;;;;;;4044115;29;20300;-91
2023/01/16 05:30:23;;;;;;;15.20;0.90;;;6.10;99.90;;;;;;4045295;29;20169;-90
2023/01/16 05:32:24;;;;;;;4.53;0.60;;;6.10;99.90;;;;;;4045847;29;20192;-94
2023/01/16 05:34:25;;;;;;;2.53;0.53;;;6.10;99.90;;;;;;4044016;29;20162;-89
2023/01/16 05:36:25;;;;;;;5.23;0.53;;;6.00;99.90;;;;;;4061296;29;20165;-90
2023/01/16 05:38:26;;;;;;;7.80;0.50;;;5.90;99.90;;;;;;4048170;29;20201;-89
2023/01/16 05:40:27;;;;;;;2.90;0.37;;;5.90;99.90;;;;;;4047297;29;20170;-90
2023/01/16 05:42:27;;;;;;;6.37;0.67;;;5.90;99.90;;;;;;4045227;29;20662;-90
2023/01/16 05:44:28;;;;;;;3.60;0.40;;;5.90;99.90;;;;;;4045247;29;20185;-89
2023/01/16 05:46:30;;;;;;;4.43;0.47;;;5.80;99.90;;;;;;4057976;29;20157;-90
2023/01/16 05:48:32;;;;;;;2.63;0.50;;;5.90;99.90;;;;;;4059116;29;20702;-90
2023/01/16 05:50:32;;;;;;;3.57;0.50;;;6.00;99.90;;;;;;4044748;29;20178;-90
2023/01/16 05:52:33;;;;;;;5.30;0.63;;;6.00;99.90;;;;;;4061556;29;20233;-90
2023/01/16 05:54:34;;;;;;;6.20;0.70;;;5.90;99.90;;;;;;4048043;29;20182;-90
2023/01/16 05:56:34;;;;;;;2.07;0.30;;;5.80;99.90;;;;;;4062835;29;20176;-89
2023/01/16 05:58:36;;;;;;;1.80;0.27;;;5.80;99.90;;;;;;4059939;29;20207;-90
2023/01/16 06:00:38;;;;;;;2.20;0.27;;;5.90;99.90;;;;;;4059745;29;20208;-90
2023/01/16 06:02:38;;;;;;;2.73;0.20;;;6.00;99.90;;;;;;4044070;29;20165;-90
2023/01/16 06:04:39;;;;;;;1.67;0.23;;;6.10;99.90;;;;;;4078658;29;20178;-89
2023/01/16 06:06:40;;;;;;;4.47;0.50;;;6.20;99.90;;;;;;4043204;29;20202;-89
2023/01/16 06:08:40;;;;;;;3.53;0.53;;;6.00;99.90;;;;;;4077205;29;20256;-89
2023/01/16 06:10:41;;;;;;;1.97;0.20;;;6.00;99.90;;;;;;4060429;29;20188;-90
2023/01/16 06:12:42;;;;;;;2.00;0.60;;;5.90;99.90;;;;;;4044852;29;20603;-90
2023/01/16 06:14:43;;;;;;;2.17;0.30;;;6.10;99.90;;;;;;4037748;29;20264;-90
2023/01/16 06:16:44;;;;;;;3.13;0.30;;;6.20;99.90;;;;;;4037858;29;20283;-91
2023/01/16 06:18:45;;;;;;;2.00;0.30;;;6.10;99.90;;;;;;4053018;29;20684;-91
2023/01/16 06:20:45;;;;;;;2.63;0.40;;;6.10;99.90;;;;;;4053347;29;20181;-89
2023/01/16 06:57:59;;;;;;;;;;;;;;;;;;;;;
2023/01/16 07:01:19;;;;;;;1.40;0.10;;;6.00;99.90;;;;;;4080971;29;20198;-95
2023/01/16 15:10:46;;;;;;;3.00;0.40;;;6.50;99.90;;;;;;4044243;29;20219;-96
2023/01/16 15:13:01;;;;;;;;;;;;;;;;;;;;;
2023/01/16 15:15:56;;;;;;;0.47;0.23;;;6.20;99.90;;;;;;4046254;29;20235;-95
2023/01/16 15:21:59;;;;;;;1.00;0.50;;;5.80;99.90;;;;;;4061137;29;20185;-95
2023/01/16 15:24:28;;;;;;;0.17;0.17;;;5.60;99.90;;;;;;4042842;29;20197;-94
2023/01/16 15:26:52;;;;;;;0.20;0.20;;;5.30;99.90;;;;;;4028929;29;20186;-94
2023/01/16 15:29:16;;;;;;;0.73;0.30;;;5.20;99.90;;;;;;4028373;29;20217;-96
2023/01/16 15:31:42;;;;;;;2.17;0.30;;;5.10;99.90;;;;;;4028599;29;20659;-93
2023/01/16 15:34:20;;;;;;;0.63;0.40;;;5.20;99.90;;;;;;4030738;29;20181;-95
2023/01/16 15:37:04;;;;;;;0.30;0.30;;;5.10;99.90;;;;;;4025795;29;20691;-95
2023/01/16 15:40:07;;;;;;;;;;;;;;;;;;;;;
2023/01/16 15:48:43;;;;;;;1.20;0.70;;;5.10;99.90;;;;;;4041448;29;20236;-94
2023/01/16 15:58:25;;;;;;;8.33;2.63;;;5.30;99.90;;;;;;4025669;29;20233;-96
2023/01/16 16:06:38;;;;;;;6.30;1.10;;;5.50;99.90;;;;;;3975601;29;20192;-96
2023/01/16 16:11:51;;;;;;;4.23;0.63;;;5.50;99.90;;;;;;4032165;29;20228;-95
2023/01/16 16:12:42;;;;;;;1.90;0.60;;;5.70;99.90;;;;;;4039326;29;20232;-95
2023/01/16 16:18:18;;;;;;;4.10;0.63;;;5.70;99.90;;;;;;4012137;29;20207;-94
2023/01/16 16:20:40;;;;;;;6.23;0.73;;;5.60;99.90;;;;;;4008948;29;20183;-95
2023/01/16 16:24:09;;;;;;;4.60;0.80;;;5.60;99.90;;;;;;4024054;29;20182;-96
2023/01/16 16:26:30;;;;;;;3.07;0.43;;;5.80;99.90;;;;;;4025156;29;20295;-95
2023/01/16 16:29:01;;;;;;;0.70;0.30;;;5.70;99.90;;;;;;4008372;29;20221;-95
2023/01/16 16:31:15;;;;;;;3.17;0.50;;;5.70;99.90;;;;;;4008879;29;20194;-93
2023/01/16 16:33:36;;;;;;;3.30;0.60;;;5.70;99.90;;;;;;4023457;29;20276;-94
2023/01/16 16:36:14;;;;;;;4.63;0.20;;;5.70;99.90;;;;;;4025224;29;20194;-93
2023/01/16 16:38:58;;;;;;;;;;;;;;;;;;;;;
2023/01/16 16:42:42;;;;;;;2.87;0.50;;;5.80;99.90;;;;;;4009884;29;20183;-94
2023/01/16 16:45:07;;;;;;;2.53;0.43;;;5.90;99.90;;;;;;3949291;30;20265;-94
2023/01/16 16:48:19;;;;;;;3.30;0.40;;;5.70;99.90;;;;;;3964617;29;20205;-95
2023/01/16 16:54:16;;;;;;;;;;;;;;;;;;;;;
2023/01/16 16:57:55;;;;;;;;;;;;;;;;;;;;;
2023/01/16 17:00:54;;;;;;;3.47;0.70;;;5.70;99.90;;;;;;3947111;30;20676;-94
2023/01/16 17:06:35;;;;;;;3.07;0.90;;;5.50;99.90;;;;;;3958870;30;20201;-94
2023/01/16 17:09:20;;;;;;;4.17;0.50;;;5.60;99.90;;;;;;3949004;30;20229;-96
2023/01/16 17:12:15;;;;;;;;;;;;;;;;;;;;;
2023/01/16 17:15:20;;;;;;;5.03;0.50;;;5.50;99.90;;;;;;3967247;29;20203;-95
2023/01/16 17:18:04;;;;;;;2.43;0.33;;;5.40;99.90;;;;;;3948853;30;20217;-95
2023/01/16 17:20:39;;;;;;;;;;;;;;;;;;;;;
2023/01/16 17:29:15;;;;;;;3.30;1.17;;;5.00;99.90;;;;;;4008938;29;20269;-94
2023/01/16 17:31:37;;;;;;;3.27;0.50;;;5.00;99.90;;;;;;3979620;29;20194;-95
2023/01/16 17:33:44;;;;;;;1.17;0.40;;;4.90;99.90;;;;;;3979565;29;20200;-94
2023/01/16 17:36:08;;;;;;;4.30;0.43;;;4.80;99.90;;;;;;3978504;29;20180;-95
2023/01/16 17:38:22;;;;;;;2.97;0.90;;;4.80;99.90;;;;;;3978830;29;20295;-94
2023/01/16 17:41:05;;;;;;;;;;;;;;;;;;;;;
2023/01/16 17:48:46;;;;;;;3.87;0.50;;;4.90;99.90;;;;;;4692682;23;20227;-95
2023/01/16 17:58:56;;;;;;;5.87;1.07;;;5.00;99.90;;;;;;3988644;29;20251;-96
2023/01/16 18:05:14;;;;;;;2.63;1.00;;;5.20;99.90;;;;;;3929571;30;20190;-95
2023/01/16 18:08:52;;;;;;;;;;;;;;;;;;;;;
2023/01/16 18:17:28;;;;;;;13.83;2.50;;;5.60;99.90;;;;;;3904974;30;20215;-95
2023/01/16 18:19:35;;;;;;;18.47;1.93;;;5.60;99.90;;;;;;3946050;30;20193;-96
2023/01/16 18:24:01;;;;;;;14.77;4.63;;;5.70;99.90;;;;;;3963196;30;20710;-94
2023/01/16 18:26:04;;;;;;;15.67;2.00;;;5.80;99.90;;;;;;3964072;30;20287;-95
2023/01/16 18:28:34;;;;;;;16.77;1.73;;;5.90;99.90;;;;;;3958925;29;20250;-95
2023/01/16 18:31:24;;;;;;;15.73;1.70;;;5.90;99.90;;;;;;3984818;29;20187;-95
2023/01/16 18:33:35;;;;;;;14.53;1.47;;;6.00;99.90;;;;;;3964226;29;20204;-94
2023/01/16 19:04:22;;;;;;;;;;;;;;;;;;;;;
2023/01/16 19:07:20;;;;;;;;;;;;;;;;;;;;;
2023/01/16 19:10:47;;;;;;;;;;;;;;;;;;;;;
2023/01/16 19:17:10;;;;;;;;;;;;;;;;;;;;;
2023/01/16 19:20:32;;;;;;;;;;;;;;;;;;;;;
2023/01/16 19:23:29;;;;;;;10.27;1.20;;;5.60;99.90;;;;;;3993861;29;20199;-95
2023/01/16 19:25:39;;;;;;;10.60;2.87;;;5.70;99.90;;;;;;3962302;30;20809;-95
2023/01/16 19:27:59;;;;;;;8.43;1.50;;;5.70;99.90;;;;;;4019731;29;20205;-95
2023/01/16 19:33:44;;;;;;;9.17;2.90;;;5.70;99.90;;;;;;4025629;29;20271;-95
2023/01/16 19:36:10;;;;;;;;;;;;;;;;;;;;;
2023/01/16 19:39:01;;;;;;;9.50;1.70;;;5.50;99.90;;;;;;4056596;29;20228;-95
2023/01/16 19:47:52;;;;;;;16.13;2.80;;;5.80;99.90;;;;;;4056640;29;20211;-95
2023/01/16 19:50:09;;;;;;;8.83;2.47;;;5.60;99.90;;;;;;4056144;29;20212;-95
2023/01/16 19:55:39;;;;;;;13.33;4.43;;;5.60;99.90;;;;;;4054226;29;20292;-95
2023/01/16 19:58:50;;;;;;;12.67;1.93;;;5.40;99.90;;;;;;4050502;29;20220;-96
